createdAt,value
2022-08-18T00:01:11.647Z,11.75
2022-08-18T00:03:56.734Z,11.77
2022-08-18T00:06:32.419Z,9.80
2022-08-18T00:09:02.674Z,9.57
2022-08-18T00:11:41.197Z,9.38
2022-08-18T00:14:19.347Z,9.32
2022-08-18T00:16:51.568Z,10.20
2022-08-18T00:19:19.537Z,10.55
2022-08-18T00:21:48.780Z,10.43
2022-08-18T00:24:16.754Z,10.10
2022-08-18T00:26:44.726Z,7.90
2022-08-18T00:29:16.637Z,10.07
2022-08-18T00:31:44.600Z,9.10
2022-08-18T00:34:12.779Z,9.38
2022-08-18T00:36:41.124Z,8.18
2022-08-18T00:39:10.580Z,9.32
2022-08-18T00:41:38.538Z,11.57
2022-08-18T00:44:06.390Z,7.65
2022-08-18T00:46:37.718Z,9.75
2022-08-18T00:49:06.079Z,9.32
2022-08-18T00:51:40.756Z,10.27
2022-08-18T00:54:14.647Z,10.52
2022-08-18T00:56:46.189Z,10.48
2022-08-18T00:59:20.610Z,8.52
2022-08-18T01:01:51.323Z,9.68
2022-08-18T01:04:23.832Z,9.48
2022-08-18T01:06:54.964Z,7.03
2022-08-18T01:09:24.546Z,7.03
2022-08-18T01:11:52.494Z,9.77
2022-08-18T01:14:21.211Z,7.32
2022-08-18T01:17:07.613Z,10.07
2022-08-18T01:19:54.053Z,9.90
2022-08-18T01:22:28.476Z,7.88
2022-08-18T01:25:18.037Z,8.23
2022-08-18T01:27:46.114Z,8.85
2022-08-18T01:30:18.277Z,9.00
2022-08-18T01:32:46.850Z,8.93
2022-08-18T01:35:18.150Z,10.15
2022-08-18T01:37:46.140Z,10.07
2022-08-18T01:41:17.270Z,8.02
2022-08-18T01:43:06.185Z,8.32
2022-08-18T01:45:34.575Z,8.10
2022-08-18T01:48:04.879Z,8.52
2022-08-18T01:50:34.218Z,7.32
2022-08-18T01:53:04.387Z,9.75
2022-08-18T01:55:34.194Z,11.02
2022-08-18T01:58:02.427Z,8.90
2022-08-18T02:00:32.258Z,7.97
2022-08-18T02:03:02.771Z,11.45
2022-08-18T02:05:37.332Z,7.63
2022-08-18T02:08:06.561Z,8.40
2022-08-18T02:10:36.217Z,8.65
2022-08-18T02:13:04.848Z,9.63
2022-08-18T02:15:33.519Z,9.48
2022-08-18T02:18:01.472Z,11.55
2022-08-18T02:20:29.348Z,9.95
2022-08-18T02:22:58.660Z,7.72
2022-08-18T02:25:26.626Z,7.95
2022-08-18T02:27:55.884Z,9.93
2022-08-18T02:30:23.890Z,8.60
2022-08-18T02:32:51.825Z,11.40
2022-08-18T02:35:19.942Z,7.75
2022-08-18T02:37:48.221Z,10.10
2022-08-18T02:40:19.020Z,7.95
2022-08-18T02:42:48.038Z,9.13
2022-08-18T02:45:17.559Z,8.45
2022-08-18T02:47:45.920Z,10.20
2022-08-18T02:50:16.572Z,9.77
2022-08-18T02:52:44.510Z,8.50
2022-08-18T02:55:12.856Z,7.70
2022-08-18T02:57:43.654Z,8.52
2022-08-18T03:00:15.301Z,8.45
2022-08-18T03:02:48.686Z,9.25
2022-08-18T03:07:45.401Z,7.25
2022-08-18T03:10:33.528Z,7.65
2022-08-18T03:13:02.173Z,9.32
2022-08-18T03:15:30.063Z,7.40
2022-08-18T03:17:59.579Z,8.77
2022-08-18T03:20:30.917Z,9.13
2022-08-18T03:23:09.514Z,8.70
2022-08-18T03:25:38.349Z,10.35
2022-08-18T03:28:07.009Z,7.47
2022-08-18T03:30:35.180Z,8.13
2022-08-18T03:33:04.733Z,8.90
2022-08-18T03:35:34.190Z,8.13
2022-08-18T03:38:02.500Z,7.40
2022-08-18T03:40:30.387Z,9.70
2022-08-18T03:42:58.326Z,7.10
2022-08-18T03:45:31.918Z,9.43
2022-08-18T03:48:00.697Z,8.52
2022-08-18T03:50:32.241Z,7.85
2022-08-18T03:53:00.395Z,8.15
2022-08-18T03:55:29.567Z,7.50
2022-08-18T03:58:02.844Z,7.82
2022-08-18T04:00:33.395Z,7.85
2022-08-18T04:03:04.022Z,6.68
2022-08-18T04:05:35.178Z,7.88
2022-08-18T04:08:04.901Z,6.93
2022-08-18T04:10:32.768Z,7.20
2022-08-18T04:13:00.945Z,8.55
2022-08-18T04:15:28.933Z,6.75
2022-08-18T04:18:03.844Z,7.43
2022-08-18T04:20:33.689Z,7.03
2022-08-18T04:23:01.987Z,11.45
2022-08-18T04:25:32.921Z,7.00
2022-08-18T04:28:03.605Z,6.72
2022-08-18T04:30:32.261Z,10.02
2022-08-18T04:33:02.405Z,7.10
2022-08-18T04:35:33.621Z,7.60
2022-08-18T04:38:01.697Z,8.55
2022-08-18T04:40:30.057Z,6.65
2022-08-18T04:42:58.144Z,6.57
2022-08-18T04:45:26.175Z,6.75
2022-08-18T04:47:54.201Z,9.63
2022-08-18T04:50:24.454Z,7.38
2022-08-18T04:53:16.944Z,7.78
2022-08-18T04:55:49.312Z,7.47
2022-08-18T04:58:18.769Z,6.93
2022-08-18T05:00:47.174Z,7.28
2022-08-18T05:03:15.597Z,6.85
2022-08-18T05:05:43.608Z,6.10
2022-08-18T05:08:12.887Z,7.13
2022-08-18T05:10:41.425Z,7.07
2022-08-18T05:13:09.779Z,6.20
2022-08-18T05:15:59.335Z,7.72
2022-08-18T05:18:26.639Z,6.47
2022-08-18T05:20:56.676Z,7.53
2022-08-18T05:23:26.614Z,6.35
2022-08-18T05:25:58.850Z,6.93
2022-08-18T05:28:27.133Z,5.80
2022-08-18T05:30:55.180Z,7.97
2022-08-18T05:33:28.279Z,5.85
2022-08-18T05:36:04.435Z,6.40
2022-08-18T05:38:42.514Z,6.00
2022-08-18T05:41:15.209Z,6.13
2022-08-18T05:43:52.061Z,6.53
2022-08-18T05:46:22.087Z,8.65
2022-08-18T05:48:50.963Z,5.43
2022-08-18T05:51:24.302Z,6.97
2022-08-18T05:54:11.346Z,6.90
2022-08-18T05:56:50.237Z,7.57
2022-08-18T05:59:23.544Z,6.10
2022-08-18T06:01:57.475Z,5.65
2022-08-18T06:04:34.503Z,6.57
2022-08-18T06:07:06.473Z,6.40
2022-08-18T06:09:42.617Z,6.15
2022-08-18T06:12:19.150Z,7.78
2022-08-18T06:14:47.198Z,7.32
2022-08-18T06:17:30.245Z,10.52
2022-08-18T06:20:09.170Z,7.38
2022-08-18T06:22:52.094Z,6.78
2022-08-18T06:25:34.180Z,5.80
2022-08-18T06:28:07.285Z,6.03
2022-08-18T06:30:51.154Z,7.25
2022-08-18T06:33:43.335Z,6.20
2022-08-18T06:36:21.501Z,8.48
2022-08-18T06:38:57.057Z,7.55
2022-08-18T06:41:43.492Z,7.53
2022-08-18T06:44:20.781Z,6.10
2022-08-18T06:46:53.662Z,5.85
2022-08-18T06:49:31.947Z,7.80
2022-08-18T06:52:00.233Z,6.22
2022-08-18T06:54:30.560Z,7.47
2022-08-18T06:57:00.403Z,8.18
2022-08-18T06:59:32.342Z,6.82
2022-08-18T07:02:03.903Z,6.35
2022-08-18T07:04:40.237Z,6.78
2022-08-18T07:07:17.355Z,7.80
2022-08-18T07:09:45.744Z,7.15
2022-08-18T07:12:23.117Z,7.18
2022-08-18T07:14:53.566Z,11.27
2022-08-18T07:17:42.738Z,6.88
2022-08-18T07:20:20.978Z,6.85
2022-08-18T07:22:57.365Z,6.55
2022-08-18T07:25:31.949Z,6.13
2022-08-18T07:28:02.701Z,6.45
2022-08-18T07:30:34.457Z,7.38
2022-08-18T07:33:12.597Z,6.30
2022-08-18T07:35:45.570Z,6.40
2022-08-18T07:38:41.333Z,7.50
2022-08-18T07:41:15.519Z,5.10
2022-08-18T07:43:58.178Z,7.43
2022-08-18T07:46:32.751Z,6.53
2022-08-18T07:49:04.701Z,7.82
2022-08-18T07:51:45.773Z,6.25
2022-08-18T07:54:47.800Z,7.13
2022-08-18T07:57:20.492Z,8.02
2022-08-18T07:59:58.670Z,6.85
2022-08-18T08:02:41.388Z,6.78
2022-08-18T08:05:18.537Z,5.88
2022-08-18T08:07:50.933Z,6.18
2022-08-18T08:10:37.422Z,7.03
2022-08-18T08:13:37.068Z,9.38
2022-08-18T08:16:20.095Z,6.75
2022-08-18T08:18:58.284Z,7.57
2022-08-18T08:21:33.265Z,7.85
2022-08-18T08:24:14.092Z,5.63
2022-08-18T08:26:55.161Z,10.85
2022-08-18T08:29:38.492Z,7.40
2022-08-18T08:32:13.481Z,6.90
2022-08-18T08:34:46.305Z,7.07
2022-08-18T08:39:50.605Z,6.97
2022-08-18T08:42:32.072Z,9.38
2022-08-18T08:47:43.673Z,9.77
2022-08-18T08:50:16.776Z,8.73
2022-08-18T08:52:51.386Z,7.50
2022-08-18T08:55:25.569Z,7.05
2022-08-18T08:58:02.007Z,9.55
2022-08-18T09:00:31.063Z,6.72
2022-08-18T09:03:13.424Z,7.03
2022-08-18T09:05:54.777Z,7.03
2022-08-18T09:08:43.833Z,7.13
2022-08-18T09:11:27.734Z,7.45
2022-08-18T09:14:14.969Z,6.15
2022-08-18T09:16:53.251Z,7.45
2022-08-18T09:19:46.107Z,7.30
2022-08-18T09:22:29.766Z,7.75
2022-08-18T09:24:58.764Z,7.45
2022-08-18T09:28:07.320Z,7.22
2022-08-18T09:30:45.144Z,6.75
2022-08-18T09:33:22.913Z,7.35
2022-08-18T09:36:25.701Z,6.65
2022-08-18T09:39:18.588Z,6.88
2022-08-18T09:41:52.661Z,6.65
2022-08-18T09:47:11.183Z,6.18
2022-08-18T09:53:02.271Z,6.95
2022-08-18T09:58:53.853Z,5.85
2022-08-18T10:01:41.298Z,5.88
2022-08-18T10:04:29.108Z,6.15
2022-08-18T10:07:20.785Z,7.90
2022-08-18T10:10:00.817Z,8.35
2022-08-18T10:12:49.144Z,7.47
2022-08-18T10:15:36.665Z,6.40
2022-08-18T10:18:31.608Z,6.38
2022-08-18T10:21:10.558Z,7.50
2022-08-18T10:24:02.903Z,7.13
2022-08-18T10:27:13.563Z,6.88
2022-08-18T10:29:59.562Z,6.72
2022-08-18T10:32:52.264Z,6.78
2022-08-18T10:35:58.398Z,7.68
2022-08-18T10:38:53.445Z,6.38
2022-08-18T10:41:26.406Z,7.93
2022-08-18T10:44:20.830Z,7.40
2022-08-18T10:46:51.463Z,6.23
2022-08-18T10:49:26.024Z,7.07
2022-08-18T10:52:10.745Z,7.18
2022-08-18T10:54:59.158Z,7.97
2022-08-18T10:57:35.428Z,7.45
2022-08-18T11:00:11.659Z,8.32
2022-08-18T11:03:39.988Z,6.55
2022-08-18T11:06:03.633Z,8.00
2022-08-18T11:08:44.648Z,7.30
2022-08-18T11:11:34.242Z,8.18
2022-08-18T11:14:12.379Z,6.72
2022-08-18T11:16:50.575Z,6.90
2022-08-18T11:19:25.767Z,7.90
2022-08-18T11:21:54.507Z,9.68
2022-08-18T11:24:25.621Z,7.10
2022-08-18T11:26:56.009Z,8.75
2022-08-18T11:29:28.723Z,7.78
2022-08-18T11:32:03.988Z,8.23
2022-08-18T11:34:38.072Z,7.15
2022-08-18T11:37:20.864Z,7.43
2022-08-18T11:39:51.057Z,7.35
2022-08-18T11:42:21.703Z,7.32
2022-08-18T11:44:55.959Z,8.57
2022-08-18T11:47:27.769Z,7.82
2022-08-18T11:50:04.411Z,8.15
2022-08-18T11:55:29.021Z,7.53
2022-08-18T11:58:00.308Z,6.75
2022-08-18T12:00:53.586Z,8.77
2022-08-18T12:03:30.040Z,9.35
2022-08-18T12:06:00.679Z,8.07
2022-08-18T12:11:28.811Z,8.60
2022-08-18T12:14:32.310Z,8.23
2022-08-18T12:16:55.775Z,7.18
2022-08-18T12:19:30.670Z,9.40
2022-08-18T12:22:01.905Z,8.20
2022-08-18T12:24:36.789Z,8.57
2022-08-18T12:29:58.275Z,7.53
2022-08-18T12:32:46.474Z,8.80
2022-08-18T12:35:21.721Z,7.45
2022-08-18T12:40:39.938Z,7.90
2022-08-18T12:43:08.034Z,7.88
2022-08-18T12:45:37.986Z,7.50
2022-08-18T12:48:07.174Z,10.18
2022-08-18T12:50:49.957Z,7.07
2022-08-18T12:53:29.820Z,8.30
2022-08-18T12:58:55.827Z,8.35
2022-08-18T13:01:25.466Z,8.45
2022-08-18T13:04:11.087Z,6.80
2022-08-18T13:06:59.222Z,7.40
2022-08-18T13:09:35.000Z,6.55
2022-08-18T13:12:17.199Z,7.88
2022-08-18T13:14:45.822Z,10.73
2022-08-18T13:17:30.518Z,9.02
2022-08-18T13:20:01.645Z,10.20
2022-08-18T13:22:32.477Z,12.88
2022-08-18T13:25:01.464Z,10.18
2022-08-18T13:27:32.735Z,7.75
2022-08-18T13:30:03.470Z,7.82
2022-08-18T13:32:59.494Z,9.23
2022-08-18T13:35:38.064Z,10.38
2022-08-18T13:38:21.759Z,9.82
2022-08-18T13:40:54.893Z,9.30
2022-08-18T13:43:28.147Z,8.30
2022-08-18T13:45:56.538Z,8.00
2022-08-18T13:48:25.546Z,8.77
2022-08-18T13:50:55.769Z,8.63
2022-08-18T13:53:27.599Z,8.73
2022-08-18T13:55:58.578Z,8.02
2022-08-18T13:58:27.719Z,7.38
2022-08-18T14:01:22.476Z,7.65
2022-08-18T14:03:48.117Z,8.63
2022-08-18T14:06:22.644Z,7.43
2022-08-18T14:08:54.575Z,8.40
2022-08-18T14:11:27.995Z,7.95
2022-08-18T14:14:01.888Z,9.05
2022-08-18T14:16:30.937Z,11.18
2022-08-18T14:19:17.654Z,7.70
2022-08-18T14:22:06.240Z,8.90
2022-08-18T14:24:54.432Z,7.70
2022-08-18T14:27:29.018Z,7.95
2022-08-18T14:30:06.669Z,8.07
2022-08-18T14:32:36.384Z,8.13
2022-08-18T14:35:32.138Z,9.07
2022-08-18T14:38:01.556Z,7.63
2022-08-18T14:40:33.321Z,10.50
2022-08-18T14:43:02.661Z,9.32
2022-08-18T14:45:35.666Z,9.75
2022-08-18T14:48:06.640Z,8.05
2022-08-18T14:50:37.037Z,9.57
2022-08-18T14:53:05.403Z,8.98
2022-08-18T14:55:35.941Z,7.82
2022-08-18T14:58:07.174Z,7.57
2022-08-18T15:00:49.880Z,8.18
2022-08-18T15:03:31.284Z,8.88
2022-08-18T15:06:04.679Z,8.07
2022-08-18T15:08:34.454Z,9.20
2022-08-18T15:11:11.695Z,11.90
2022-08-18T15:13:41.616Z,9.35
2022-08-18T15:16:13.713Z,8.80
2022-08-18T15:18:41.758Z,10.00
2022-08-18T15:21:35.057Z,7.30
2022-08-18T15:24:24.361Z,9.57
2022-08-18T15:26:58.238Z,8.57
2022-08-18T15:29:34.271Z,9.93
2022-08-18T15:32:05.854Z,9.23
2022-08-18T15:34:47.278Z,9.45
2022-08-18T15:37:20.375Z,7.70
2022-08-18T15:40:00.922Z,9.18
2022-08-18T15:42:33.208Z,9.88
2022-08-18T15:45:12.108Z,9.85
2022-08-18T15:47:42.214Z,9.55
2022-08-18T15:50:25.634Z,7.85
2022-08-18T15:52:57.617Z,8.85
2022-08-18T15:55:27.533Z,8.52
2022-08-18T15:57:58.274Z,10.25
2022-08-18T16:00:28.145Z,9.98
2022-08-18T16:02:58.740Z,11.10
2022-08-18T16:05:31.809Z,9.90
2022-08-18T16:08:01.219Z,8.38
2022-08-18T16:10:32.241Z,10.48
2022-08-18T16:13:04.369Z,10.40
2022-08-18T16:15:36.925Z,9.77
2022-08-18T16:18:06.664Z,11.50
2022-08-18T16:20:35.126Z,11.20
2022-08-18T16:23:03.592Z,9.45
2022-08-18T16:25:31.565Z,10.85
2022-08-18T16:28:01.395Z,12.50
2022-08-18T16:30:30.197Z,9.45
2022-08-18T16:33:02.778Z,9.70
2022-08-18T16:35:31.532Z,11.80
2022-08-18T16:38:04.463Z,8.98
2022-08-18T16:40:32.433Z,9.63
2022-08-18T16:43:01.726Z,11.73
2022-08-18T16:45:31.470Z,8.88
2022-08-18T16:47:59.740Z,8.50
2022-08-18T16:50:28.149Z,8.55
2022-08-18T16:52:56.489Z,10.32
2022-08-18T16:55:24.497Z,11.32
2022-08-18T16:58:14.840Z,9.95
2022-08-18T17:01:03.221Z,10.50
2022-08-18T17:03:47.752Z,9.38
2022-08-18T17:06:18.491Z,8.90
2022-08-18T17:08:46.979Z,11.38
2022-08-18T17:11:17.736Z,8.68
2022-08-18T17:13:46.879Z,13.00
2022-08-18T17:16:18.058Z,10.85
2022-08-18T17:18:46.738Z,8.95
2022-08-18T17:21:17.711Z,12.45
2022-08-18T17:23:46.523Z,9.98
2022-08-18T17:26:23.102Z,12.23
2022-08-18T17:28:55.597Z,11.50
2022-08-18T17:31:25.301Z,13.07
2022-08-18T17:33:57.886Z,9.25
2022-08-18T17:36:33.554Z,7.95
2022-08-18T17:39:05.206Z,6.18
2022-08-18T17:41:54.445Z,6.78
2022-08-18T17:44:28.640Z,2.92
2022-08-18T17:47:03.206Z,2.70
2022-08-18T17:49:54.261Z,4.13
2022-08-18T17:52:41.821Z,2.38
2022-08-18T17:55:14.594Z,3.28
2022-08-18T17:57:58.680Z,2.95
2022-08-18T18:00:29.380Z,3.90
2022-08-18T18:02:58.679Z,2.97
2022-08-18T18:05:36.409Z,3.50
2022-08-18T18:08:04.864Z,3.42
2022-08-18T18:10:51.142Z,3.63
2022-08-18T18:13:32.337Z,5.63
2022-08-18T18:16:02.001Z,4.75
2022-08-18T18:18:38.580Z,4.15
2022-08-18T18:21:19.025Z,5.20
2022-08-18T18:23:48.824Z,4.50
2022-08-18T18:26:28.282Z,6.40
2022-08-18T18:29:33.565Z,4.82
2022-08-18T18:32:05.428Z,4.28
2022-08-18T18:34:39.581Z,4.82
2022-08-18T18:37:25.341Z,5.45
2022-08-18T18:39:58.365Z,4.13
2022-08-18T18:42:28.928Z,4.93
2022-08-18T18:44:59.037Z,8.20
2022-08-18T18:47:48.707Z,5.97
2022-08-18T18:50:25.803Z,5.93
2022-08-18T18:53:05.844Z,4.00
2022-08-18T18:55:38.369Z,2.47
2022-08-18T18:58:19.221Z,2.50
2022-08-18T19:00:54.226Z,2.80
2022-08-18T19:03:29.336Z,3.00
2022-08-18T19:06:12.160Z,4.90
2022-08-18T19:08:48.556Z,2.67
2022-08-18T19:11:23.981Z,2.28
2022-08-18T19:13:56.575Z,2.38
2022-08-18T19:16:34.649Z,2.42
2022-08-18T19:19:35.399Z,4.38
2022-08-18T19:22:06.488Z,2.20
2022-08-18T19:24:41.542Z,3.25
2022-08-18T19:27:23.393Z,3.08
2022-08-18T19:29:55.652Z,3.13
2022-08-18T19:32:33.292Z,3.13
2022-08-18T19:35:10.504Z,2.92
2022-08-18T19:38:00.780Z,3.00
2022-08-18T19:40:37.428Z,2.15
2022-08-18T19:43:12.374Z,2.33
2022-08-18T19:45:47.053Z,2.25
2022-08-18T19:53:56.575Z,2.13
2022-08-18T19:56:42.382Z,1.60
2022-08-18T19:59:34.134Z,1.10
2022-08-18T20:02:20.769Z,2.50
2022-08-18T20:05:03.658Z,1.92
2022-08-18T20:08:03.910Z,2.50
2022-08-18T20:10:51.387Z,2.38
2022-08-18T20:13:33.600Z,2.25
2022-08-18T20:16:24.952Z,2.30
2022-08-18T20:18:58.264Z,1.70
2022-08-18T20:21:45.435Z,1.75
2022-08-18T20:24:43.779Z,3.58
2022-08-18T20:27:34.972Z,3.78
2022-08-18T20:30:23.966Z,9.52
2022-08-18T20:33:29.209Z,8.38
2022-08-18T20:36:10.412Z,8.27
2022-08-18T20:38:41.084Z,12.20
2022-08-18T20:41:42.833Z,10.90
2022-08-18T20:44:50.440Z,12.85
2022-08-18T20:47:42.000Z,10.02
2022-08-18T20:50:46.714Z,11.10
2022-08-18T20:53:26.281Z,10.23
2022-08-18T20:59:04.104Z,7.78
2022-08-18T21:01:38.974Z,8.60
2022-08-18T21:04:08.856Z,9.80
2022-08-18T21:06:41.967Z,7.53
2022-08-18T21:09:10.397Z,8.20
2022-08-18T21:11:42.948Z,8.35
2022-08-18T21:14:12.810Z,7.00
2022-08-18T21:16:45.019Z,8.55
2022-08-18T21:19:20.624Z,7.32
2022-08-18T21:21:51.681Z,8.20
2022-08-18T21:24:23.268Z,10.27
2022-08-18T21:26:54.858Z,10.32
2022-08-18T21:29:22.951Z,11.95
2022-08-18T21:31:50.905Z,12.10
2022-08-18T21:34:35.834Z,12.07
2022-08-18T21:37:10.052Z,13.20
2022-08-18T21:39:49.566Z,16.35
2022-08-18T21:42:23.256Z,15.77
2022-08-18T21:44:54.970Z,14.85
2022-08-18T21:47:25.029Z,14.52
2022-08-18T21:50:09.308Z,13.52
2022-08-18T21:52:39.765Z,13.07
2022-08-18T21:55:13.939Z,14.90
2022-08-18T21:58:00.809Z,15.82
2022-08-18T22:00:31.067Z,13.95
2022-08-18T22:03:21.463Z,18.67
2022-08-18T22:06:00.051Z,15.13
2022-08-18T22:08:31.743Z,15.82
2022-08-18T22:11:38.285Z,13.45
2022-08-18T22:14:27.888Z,13.80
2022-08-18T22:17:40.505Z,12.23
2022-08-18T22:20:44.042Z,12.98
2022-08-18T22:23:43.300Z,12.73
2022-08-18T22:26:14.132Z,11.55
2022-08-18T22:28:52.705Z,10.85
2022-08-18T22:31:21.501Z,12.85
2022-08-18T22:33:50.082Z,12.55
2022-08-18T22:36:21.582Z,12.35
2022-08-18T22:38:52.314Z,12.55
2022-08-18T22:41:20.891Z,12.90
2022-08-18T22:43:49.733Z,13.73
2022-08-18T22:46:24.702Z,14.30
2022-08-18T22:48:53.672Z,11.32
2022-08-18T22:51:23.422Z,11.38
2022-08-18T22:53:53.397Z,11.55
2022-08-18T22:56:26.501Z,9.90
2022-08-18T22:59:15.542Z,10.73
2022-08-18T23:01:48.045Z,12.43
2022-08-18T23:04:17.211Z,10.40
2022-08-18T23:06:52.047Z,10.65
2022-08-18T23:09:24.693Z,10.07
2022-08-18T23:11:54.016Z,10.97
2022-08-18T23:14:22.396Z,12.85
2022-08-18T23:16:50.667Z,12.20
2022-08-18T23:19:20.777Z,10.50
2022-08-18T23:21:49.846Z,10.85
2022-08-18T23:24:19.702Z,11.38
2022-08-18T23:26:49.814Z,10.02
2022-08-18T23:29:17.986Z,10.10
2022-08-18T23:31:48.328Z,9.18
2022-08-18T23:34:17.881Z,8.40
2022-08-18T23:36:47.294Z,8.80
2022-08-18T23:39:15.289Z,9.35
2022-08-18T23:41:43.535Z,9.73
2022-08-18T23:44:14.900Z,8.77
2022-08-18T23:46:44.532Z,7.28
2022-08-18T23:49:14.614Z,8.80
2022-08-18T23:51:44.895Z,7.40
2022-08-18T23:54:15.341Z,8.50
2022-08-18T23:56:43.329Z,6.80
2022-08-18T23:59:13.595Z,7.70
